Time;durP1;ratioP1;P1;durP2;ratioP2;P2;SDS_P1;SDS_P2;PMS_P1;PMS_P2;Temp;Humidity;BMP_temperature;BMP_pressure;BME280_temperature;BME280_humidity;BME280_pressure;Samples;Min_cycle;Max_cycle;Signal;HPM_P1;HPM_P2
2021/04/26 00:00:07;;;;;;;13.80;7.70;;;;;;;4.92;75.33;100796.61;1780512;80;21018;-40
2021/04/26 00:02:36;;;;;;;17.50;8.05;;;;;;;4.92;75.33;100796.61;1779876;79;21002;-41
2021/04/26 00:05:06;;;;;;;23.83;6.97;;;;;;;4.73;75.49;100797.69;1780519;80;21421;-41
2021/04/26 00:07:35;;;;;;;15.28;7.58;;;;;;;4.73;75.49;100797.69;1780273;80;21105;-40
2021/04/26 00:10:07;;;;;;;19.98;8.20;;;;;;;4.69;75.98;100801.50;1780404;80;21026;-41
2021/04/26 00:12:36;;;;;;;15.78;6.92;;;;;;;4.64;76.19;100810.83;1780448;80;21049;-42
2021/04/26 00:15:09;;;;;;;9.45;6.67;;;;;;;4.55;76.41;100808.59;1779227;80;21042;-41
2021/04/26 00:17:38;;;;;;;15.65;7.55;;;;;;;4.43;77.07;100809.30;1780502;80;21534;-42
2021/04/26 00:20:52;;;;;;;17.42;6.92;;;;;;;4.46;77.29;100811.06;1813324;79;22622;-41
2021/04/26 00:23:22;;;;;;;14.85;7.37;;;;;;;4.42;77.52;100815.68;1784002;80;21057;-41
2021/04/26 00:25:51;;;;;;;16.42;7.97;;;;;;;4.38;77.74;100810.08;1783853;80;21009;-41
2021/04/26 00:28:20;;;;;;;11.45;7.53;;;;;;;4.38;77.89;100812.64;1783783;80;21009;-41
2021/04/26 00:30:48;;;;;;;12.75;7.75;;;;;;;4.37;78.07;100808.36;1783913;80;21006;-41
2021/04/26 00:33:15;;;;;;;16.93;8.45;;;;;;;4.38;78.47;100809.67;1783844;80;21001;-41
2021/04/26 00:35:43;;;;;;;15.58;7.72;;;;;;;4.38;78.62;100808.80;1783954;80;21037;-40
2021/04/26 00:38:11;;;;;;;17.15;7.62;;;;;;;4.38;79.03;100805.83;1783886;80;21347;-41
2021/04/26 00:40:38;;;;;;;11.73;8.90;;;;;;;4.40;79.02;100801.58;1783785;80;21033;-41
2021/04/26 00:43:07;;;;;;;10.90;7.62;;;;;;;4.43;79.14;100806.74;1783828;80;21014;-41
2021/04/26 00:45:35;;;;;;;9.25;7.53;;;;;;;4.50;79.66;100799.12;1783820;80;21006;-41
2021/04/26 00:48:02;;;;;;;22.85;8.73;;;;;;;4.50;79.66;100799.12;1783825;80;20981;-42
2021/04/26 00:50:31;;;;;;;19.20;8.25;;;;;;;4.52;79.40;100803.44;1783799;80;21594;-41
2021/04/26 00:53:01;;;;;;;12.03;6.87;;;;;;;4.52;79.44;100803.44;1783774;80;21045;-41
2021/04/26 00:55:34;;;;;;;10.60;7.65;;;;;;;4.55;79.39;100797.50;1783918;80;21479;-41
2021/04/26 00:58:02;;;;;;;16.77;7.40;;;;;;;4.55;79.39;100797.50;1783829;80;21076;-41
2021/04/26 01:00:30;;;;;;;12.63;7.08;;;;;;;4.55;79.48;100791.93;1783915;80;20983;-41
2021/04/26 01:02:59;;;;;;;15.40;7.15;;;;;;;4.57;79.55;100796.66;1754672;80;21349;-41
2021/04/26 01:05:29;;;;;;;8.93;7.53;;;;;;;4.58;79.67;100788.12;1752784;81;20947;-41
2021/04/26 01:07:57;;;;;;;12.75;8.05;;;;;;;4.60;79.54;100787.71;1752813;80;21026;-41
2021/04/26 01:10:29;;;;;;;11.28;6.72;;;;;;;4.68;79.51;100793.37;1750751;81;21507;-41
2021/04/26 01:13:33;;;;;;;10.00;5.90;;;;;;;4.73;79.49;100789.15;1752898;81;21085;-41
2021/04/26 01:16:18;;;;;;;20.35;7.47;;;;;;;4.77;79.53;100790.02;1752805;81;22111;-41
2021/04/26 01:19:08;;;;;;;17.57;7.30;;;;;;;4.78;79.36;100790.05;1752701;81;21112;-40
2021/04/26 01:22:04;;;;;;;15.65;7.85;;;;;;;4.77;79.29;100780.64;1739788;81;20939;-40
2021/04/26 01:25:03;;;;;;;8.48;6.62;;;;;;;4.73;79.26;100775.89;1739961;82;20970;-41
2021/04/26 01:28:01;;;;;;;11.97;7.60;;;;;;;4.69;79.10;100775.86;1738689;82;21006;-41
2021/04/26 01:30:48;;;;;;;10.13;7.53;;;;;;;4.60;79.08;100771.05;1739652;82;21359;-41
2021/04/26 01:33:28;;;;;;;12.55;7.62;;;;;;;4.52;79.18;100762.41;1889902;76;22682;-40
2021/04/26 01:36:03;;;;;;;12.45;7.25;;;;;;;4.41;79.15;100765.25;1860562;77;20989;-40
2021/04/26 01:38:38;;;;;;;15.83;7.00;;;;;;;4.25;79.84;100756.52;1860765;77;21360;-40
2021/04/26 01:41:06;;;;;;;7.47;5.83;;;;;;;4.25;79.84;100756.52;1822998;78;21610;-41
2021/04/26 01:43:34;;;;;;;11.73;6.65;;;;;;;4.20;79.71;100755.61;1822944;78;20924;-41
2021/04/26 01:46:04;;;;;;;13.38;6.70;;;;;;;4.14;79.74;100749.57;1759795;80;20962;-41
2021/04/26 01:48:39;;;;;;;13.50;7.72;;;;;;;4.05;79.80;100740.50;1822936;78;20945;-41
2021/04/26 01:51:07;;;;;;;12.80;7.37;;;;;;;3.96;79.90;100736.11;1779443;80;21367;-41
2021/04/26 01:53:40;;;;;;;16.45;7.87;;;;;;;3.87;80.01;100735.97;1822904;78;20977;-41
2021/04/26 01:56:09;;;;;;;15.90;7.53;;;;;;;3.80;80.18;100732.89;1822928;78;20998;-41
2021/04/26 01:58:42;;;;;;;31.68;8.73;;;;;;;3.72;80.39;100728.93;1822486;78;21091;-41
2021/04/26 02:01:16;;;;;;;133.37;14.13;;;;;;;3.63;80.66;100725.81;1789603;79;21556;-41
2021/04/26 02:03:51;;;;;;;50.40;11.35;;;;;;;3.56;80.52;100727.85;1784432;80;22115;-41
2021/04/26 02:06:38;;;;;;;24.87;7.37;;;;;;;3.51;80.77;100730.77;1784302;80;20994;-40
2021/04/26 02:09:24;;;;;;;25.15;8.13;;;;;;;3.43;80.91;100725.13;1784584;80;21038;-40
2021/04/26 02:11:56;;;;;;;50.98;9.00;;;;;;;3.36;81.30;100723.28;1784094;80;21030;-40
2021/04/26 02:14:26;;;;;;;50.98;11.20;;;;;;;3.28;81.70;100723.59;1784006;80;21010;-40
2021/04/26 02:16:54;;;;;;;51.55;10.68;;;;;;;3.23;82.09;100722.66;1784454;80;21359;-40
2021/04/26 02:19:22;;;;;;;83.87;10.98;;;;;;;3.20;82.26;100724.74;1756246;80;20991;-40
2021/04/26 02:21:50;;;;;;;68.22;10.78;;;;;;;3.14;82.33;100720.38;1784385;80;21002;-40
2021/04/26 02:24:18;;;;;;;80.38;10.58;;;;;;;3.11;82.55;100717.77;1784399;80;21050;-40
2021/04/26 02:26:46;;;;;;;42.75;9.83;;;;;;;3.06;82.81;100718.13;1784405;80;20994;-40
2021/04/26 02:29:14;;;;;;;29.85;8.20;;;;;;;3.00;83.00;100709.08;1784368;80;21458;-40
2021/04/26 02:31:45;;;;;;;66.15;11.12;;;;;;;2.95;83.22;100704.30;1781782;80;21047;-40
2021/04/26 02:34:25;;;;;;;44.83;10.20;;;;;;;2.90;83.35;100698.23;1769704;81;21525;-40
2021/04/26 02:37:03;;;;;;;34.83;8.55;;;;;;;2.86;83.78;100696.90;1769551;81;21587;-40
2021/04/26 02:39:33;;;;;;;59.00;8.33;;;;;;;2.85;83.98;100696.89;1769589;81;20956;-40
2021/04/26 02:42:00;;;;;;;14.65;6.72;;;;;;;2.82;84.51;100700.24;1769552;81;21208;-40
2021/04/26 02:44:30;;;;;;;12.10;7.22;;;;;;;2.87;84.68;100699.90;1720287;81;21034;-40
2021/04/26 02:47:04;;;;;;;13.00;6.83;;;;;;;2.96;84.62;100697.92;1757784;81;21040;-40
2021/04/26 02:49:32;;;;;;;11.35;7.47;;;;;;;3.03;84.43;100701.45;1790763;80;20923;-40
2021/04/26 02:52:00;;;;;;;14.70;8.20;;;;;;;3.09;84.36;100698.98;1759477;81;20949;-40
2021/04/26 02:54:28;;;;;;;11.50;7.35;;;;;;;3.15;84.31;100690.55;1790814;78;21440;-40
2021/04/26 02:56:57;;;;;;;11.83;7.25;;;;;;;3.16;84.14;100695.71;1790766;78;20937;-40
2021/04/26 02:59:25;;;;;;;18.60;6.78;;;;;;;3.15;83.98;100692.68;1790803;78;21006;-40
2021/04/26 03:01:56;;;;;;;45.08;9.30;;;;;;;3.11;83.99;100692.62;1790670;80;20915;-40
2021/04/26 03:04:38;;;;;;;51.37;8.10;;;;;;;3.10;83.88;100693.03;1788103;78;21676;-40
2021/04/26 03:07:06;;;;;;;34.08;7.42;;;;;;;3.06;83.68;100695.09;1759513;80;21199;-40
2021/04/26 03:09:36;;;;;;;21.52;6.62;;;;;;;3.02;83.55;100694.18;1789783;80;20906;-40
2021/04/26 03:12:05;;;;;;;22.40;6.53;;;;;;;2.96;83.61;100686.84;1790823;78;20954;-40
2021/04/26 03:14:39;;;;;;;11.75;6.33;;;;;;;2.88;83.67;100686.28;1758419;81;21147;-40
2021/04/26 03:17:08;;;;;;;9.18;6.08;;;;;;;2.80;83.84;100685.30;1764707;80;21044;-40
2021/04/26 03:19:39;;;;;;;12.55;6.12;;;;;;;2.77;84.15;100687.80;1790830;80;21321;-40
2021/04/26 03:22:08;;;;;;;9.70;5.72;;;;;;;2.76;84.29;100689.04;1759442;81;21585;-40
2021/04/26 03:24:39;;;;;;;8.65;5.35;;;;;;;2.74;84.39;100690.31;1790743;78;20974;-40
2021/04/26 03:27:08;;;;;;;7.62;5.55;;;;;;;2.76;84.52;100685.20;1759487;81;21024;-40
2021/04/26 03:29:36;;;;;;;7.72;5.65;;;;;;;2.79;84.58;100685.28;1790895;80;21002;-40
2021/04/26 03:32:05;;;;;;;9.05;5.47;;;;;;;2.83;84.71;100685.34;1794958;79;21532;-40
2021/04/26 03:34:35;;;;;;;7.17;5.03;;;;;;;2.88;84.68;100682.44;1794499;80;20911;-40
2021/04/26 03:37:03;;;;;;;7.92;5.03;;;;;;;2.96;84.84;100683.01;1795184;79;21353;-40
2021/04/26 03:39:30;;;;;;;8.48;5.25;;;;;;;3.04;84.81;100676.31;1795209;80;21027;-40
2021/04/26 03:42:01;;;;;;;5.97;4.90;;;;;;;3.12;84.67;100667.05;1795258;79;21042;-40
2021/04/26 03:44:29;;;;;;;8.93;5.17;;;;;;;3.22;84.55;100674.45;1795199;80;21376;-40
2021/04/26 03:47:01;;;;;;;8.10;5.17;;;;;;;3.33;84.45;100666.09;1737070;80;21160;-40
2021/04/26 03:49:47;;;;;;;9.10;5.00;;;;;;;3.49;84.39;100665.89;1795243;80;21018;-40
2021/04/26 03:52:21;;;;;;;4.87;4.37;;;;;;;3.73;84.26;100657.67;1795187;80;21344;-40
2021/04/26 03:54:51;;;;;;;8.63;4.50;;;;;;;4.01;83.98;100661.85;1783700;80;21010;-40
2021/04/26 03:57:19;;;;;;;10.53;5.03;;;;;;;4.28;83.34;100651.48;1795186;80;21205;-40
2021/04/26 03:59:47;;;;;;;5.40;4.45;;;;;;;4.51;82.59;100653.01;1795121;80;21089;-40
2021/04/26 04:02:14;;;;;;;6.15;4.30;;;;;;;4.71;82.08;100654.91;1795180;79;20899;-40
2021/04/26 04:04:43;;;;;;;14.30;5.30;;;;;;;5.32;80.80;100649.80;1795210;80;21038;-40
2021/04/26 04:07:28;;;;;;;8.30;5.03;;;;;;;5.32;80.80;100649.80;1792947;80;21018;-40
2021/04/26 04:10:16;;;;;;;10.18;4.30;;;;;;;5.74;79.44;100644.47;1795225;79;21334;-41
2021/04/26 04:12:58;;;;;;;4.65;3.75;;;;;;;6.16;77.87;100638.23;1795117;79;21710;-41
2021/04/26 04:15:27;;;;;;;4.58;4.17;;;;;;;6.44;76.53;100641.27;1795274;79;21496;-41
2021/04/26 04:17:55;;;;;;;8.15;4.00;;;;;;;6.57;75.73;100643.02;1795156;80;21018;-40
2021/04/26 04:20:25;;;;;;;5.37;3.72;;;;;;;6.64;74.65;100646.87;1795193;80;20933;-40
2021/04/26 04:22:53;;;;;;;12.07;4.55;;;;;;;6.67;73.77;100651.61;1795145;80;21205;-40
2021/04/26 04:25:21;;;;;;;5.22;3.80;;;;;;;6.66;73.08;100644.74;1795098;80;20986;-40
2021/04/26 04:27:49;;;;;;;10.15;5.05;;;;;;;6.68;72.69;100647.30;1795140;79;21022;-41
2021/04/26 04:30:19;;;;;;;6.47;4.33;;;;;;;6.68;72.17;100640.45;1795246;80;21586;-41
2021/04/26 04:33:06;;;;;;;7.20;4.45;;;;;;;6.68;72.16;100639.58;1795066;79;21452;-40
2021/04/26 04:35:34;;;;;;;7.90;4.85;;;;;;;6.68;71.75;100633.15;1794903;80;21449;-40
2021/04/26 04:38:19;;;;;;;4.87;4.45;;;;;;;6.68;71.69;100628.88;1698220;84;21053;-40
2021/04/26 04:41:06;;;;;;;13.65;4.92;;;;;;;6.71;71.45;100625.46;1776475;80;21081;-40
2021/04/26 04:43:34;;;;;;;7.12;5.00;;;;;;;6.74;71.37;100634.47;1794845;80;20995;-40
2021/04/26 04:46:06;;;;;;;5.72;4.60;;;;;;;6.79;71.46;100623.73;1761962;80;20951;-40
2021/04/26 04:48:36;;;;;;;9.55;5.12;;;;;;;6.88;71.21;100626.74;1794398;80;21103;-40
2021/04/26 04:51:05;;;;;;;7.62;4.80;;;;;;;6.96;70.80;100617.73;1794784;80;20942;-40
2021/04/26 04:53:33;;;;;;;13.15;5.47;;;;;;;7.04;70.32;100621.15;1794849;80;20978;-40
2021/04/26 04:56:01;;;;;;;10.48;4.25;;;;;;;7.12;70.04;100610.40;1794869;80;21058;-40
2021/04/26 04:58:40;;;;;;;14.18;4.40;;;;;;;7.24;69.51;100612.55;1794892;80;21033;-41
2021/04/26 05:01:08;;;;;;;13.43;4.33;;;;;;;7.35;68.25;100608.21;1794946;80;22212;-41
2021/04/26 05:03:54;;;;;;;7.53;4.15;;;;;;;7.46;68.01;100605.61;1794866;80;20954;-41
2021/04/26 05:06:41;;;;;;;5.03;3.92;;;;;;;7.62;67.32;100604.70;1794857;80;20946;-41
2021/04/26 05:09:27;;;;;;;;;;;;;;;7.76;66.67;100602.48;1797482;80;20958;-41
2021/04/26 05:12:14;;;;;;;7.87;4.42;;;;;;;7.90;65.85;100599.42;1794857;80;20135;-40
2021/04/26 05:15:05;;;;;;;10.08;3.70;;;;;;;7.96;65.20;100589.52;1793162;80;21395;-41
2021/04/26 05:17:32;;;;;;;5.92;3.92;;;;;;;8.07;64.82;100588.14;1794805;80;20966;-41
2021/04/26 05:20:00;;;;;;;5.85;3.85;;;;;;;8.22;63.62;100596.25;1794862;80;21053;-41
2021/04/26 05:22:28;;;;;;;10.00;3.98;;;;;;;8.36;62.78;100600.44;1794802;80;21058;-41
2021/04/26 05:25:05;;;;;;;10.65;4.12;;;;;;;8.43;61.44;100599.09;1794504;80;21014;-41
2021/04/26 05:27:36;;;;;;;13.18;3.30;;;;;;;8.53;59.58;100593.89;1763980;80;21376;-41
2021/04/26 05:30:06;;;;;;;13.65;4.25;;;;;;;8.62;59.36;100597.26;1794866;80;21526;-41
2021/04/26 05:32:34;;;;;;;13.85;4.55;;;;;;;8.74;59.31;100582.11;1794191;80;21547;-41
2021/04/26 05:35:05;;;;;;;9.25;4.85;;;;;;;8.96;59.61;100578.04;1788583;80;20994;-41
2021/04/26 05:37:32;;;;;;;6.30;3.60;;;;;;;9.18;59.00;100586.86;1788971;80;20959;-41
2021/04/26 05:40:00;;;;;;;9.30;4.35;;;;;;;9.39;58.20;100586.22;1788999;80;21144;-41
2021/04/26 05:42:30;;;;;;;7.90;3.95;;;;;;;9.57;58.12;100586.42;1788908;80;21022;-41
2021/04/26 05:44:58;;;;;;;12.35;4.60;;;;;;;9.69;58.81;100571.20;1788990;80;21341;-41
2021/04/26 05:47:42;;;;;;;9.78;4.60;;;;;;;9.90;58.16;100572.64;1697469;84;21034;-41
2021/04/26 05:50:11;;;;;;;12.75;4.58;;;;;;;10.14;57.95;100569.29;1759721;80;20967;-41
2021/04/26 05:52:38;;;;;;;21.48;6.00;;;;;;;10.46;58.43;100566.66;1789004;80;21468;-42
2021/04/26 05:55:07;;;;;;;14.63;4.65;;;;;;;10.75;57.35;100565.35;1788964;80;20939;-41
2021/04/26 05:57:35;;;;;;;10.23;5.28;;;;;;;10.87;55.52;100557.81;1789029;80;20991;-41
2021/04/26 06:00:05;;;;;;;8.23;4.85;;;;;;;10.77;55.19;100568.31;1788978;80;21015;-41
2021/04/26 06:02:35;;;;;;;7.37;3.85;;;;;;;10.57;54.77;100569.95;1788154;80;21337;-41
2021/04/26 06:05:03;;;;;;;6.75;4.22;;;;;;;10.41;55.49;100568.05;1789014;80;21210;-41
2021/04/26 06:07:31;;;;;;;10.85;4.05;;;;;;;10.40;55.10;100574.11;1788974;80;22277;-41
2021/04/26 06:09:59;;;;;;;13.40;3.90;;;;;;;10.43;54.67;100565.42;1788846;80;21007;-42
2021/04/26 06:12:26;;;;;;;17.92;4.37;;;;;;;10.52;54.03;100574.78;1788786;80;20999;-41
2021/04/26 06:14:54;;;;;;;22.35;3.25;;;;;;;10.66;54.24;100572.83;1789002;80;21241;-41
2021/04/26 06:17:21;;;;;;;27.98;4.03;;;;;;;10.79;53.11;100569.59;1788996;80;21372;-41
2021/04/26 06:19:49;;;;;;;7.50;2.60;;;;;;;10.78;50.60;100575.66;1789144;80;21018;-41
2021/04/26 06:22:17;;;;;;;26.70;3.77;;;;;;;10.64;50.69;100578.02;1789159;80;21534;-41
2021/04/26 06:24:45;;;;;;;21.40;3.45;;;;;;;10.42;51.17;100583.13;1789074;80;21062;-41
2021/04/26 06:27:12;;;;;;;13.03;3.27;;;;;;;10.26;51.95;100587.66;1789091;80;21018;-41
2021/04/26 06:29:40;;;;;;;10.95;3.10;;;;;;;9.98;52.76;100582.88;1789123;80;21208;-41
2021/04/26 06:32:08;;;;;;;47.27;3.67;;;;;;;9.77;52.48;100584.45;1788978;80;20954;-42
2021/04/26 06:34:36;;;;;;;13.20;3.08;;;;;;;9.65;52.86;100590.22;1788985;80;21066;-41
2021/04/26 06:37:03;;;;;;;19.55;3.47;;;;;;;9.41;54.65;100592.22;1789056;80;21441;-41
2021/04/26 06:39:31;;;;;;;12.43;3.05;;;;;;;9.31;54.94;100600.50;1789097;80;21007;-41
2021/04/26 06:42:00;;;;;;;14.87;3.08;;;;;;;9.29;55.35;100590.17;1789125;80;21354;-41
2021/04/26 06:44:28;;;;;;;80.40;4.67;;;;;;;9.29;56.30;100600.50;1789071;80;21007;-42
2021/04/26 06:46:56;;;;;;;25.20;3.40;;;;;;;9.14;56.37;100598.10;1789109;80;21003;-41
2021/04/26 06:49:27;;;;;;;10.68;3.40;;;;;;;9.05;57.28;100593.88;1762437;80;21018;-41
2021/04/26 06:51:54;;;;;;;7.45;3.37;;;;;;;8.63;59.63;100614.45;1789053;80;20998;-42
2021/04/26 06:54:23;;;;;;;6.55;3.12;;;;;;;8.33;62.57;100614.20;1789014;80;21244;-41
2021/04/26 06:56:51;;;;;;;6.35;2.92;;;;;;;8.02;64.30;100619.13;1789042;80;21014;-41
2021/04/26 06:59:19;;;;;;;5.12;3.17;;;;;;;7.75;65.26;100605.92;1789044;80;20994;-41
2021/04/26 07:01:46;;;;;;;7.20;3.30;;;;;;;7.45;67.89;100560.98;1788976;80;21014;-42
2021/04/26 07:04:14;;;;;;;3.20;3.00;;;;;;;7.32;69.46;100518.93;1789119;80;21483;-41
2021/04/26 07:06:42;;;;;;;7.53;3.60;;;;;;;7.25;69.94;100515.96;1789094;80;21426;-41
2021/04/26 07:09:09;;;;;;;4.03;2.90;;;;;;;7.27;69.92;100523.70;1788990;80;21002;-41
2021/04/26 07:11:39;;;;;;;3.27;2.65;;;;;;;7.31;70.68;100531.38;1789072;80;21061;-41
2021/04/26 07:14:08;;;;;;;4.17;2.92;;;;;;;7.38;69.37;100530.09;1789006;80;20916;-41
2021/04/26 07:16:35;;;;;;;4.00;3.00;;;;;;;7.41;68.63;100529.63;1789050;80;20928;-41
2021/04/26 07:19:04;;;;;;;3.12;2.80;;;;;;;7.43;68.49;100529.19;1789015;80;21202;-41
2021/04/26 07:21:31;;;;;;;5.42;2.70;;;;;;;7.48;67.95;100532.63;1789018;80;21600;-41
2021/04/26 07:23:59;;;;;;;5.35;3.30;;;;;;;7.56;67.96;100533.02;1789056;80;20971;-41
2021/04/26 07:26:27;;;;;;;3.65;2.87;;;;;;;7.70;67.74;100527.34;1789027;80;20939;-41
2021/04/26 07:28:54;;;;;;;5.47;2.72;;;;;;;7.94;67.51;100523.36;1789039;80;20947;-41
2021/04/26 07:31:22;;;;;;;6.15;2.75;;;;;;;8.18;67.08;100521.03;1789049;80;21395;-41
2021/04/26 07:33:49;;;;;;;5.47;3.08;;;;;;;8.44;65.43;100518.67;1790982;80;21014;-41
2021/04/26 07:36:19;;;;;;;5.45;2.77;;;;;;;8.58;64.97;100516.88;1794866;80;21025;-41
2021/04/26 07:38:48;;;;;;;8.43;3.25;;;;;;;8.63;65.12;100513.81;1764364;80;21023;-41
2021/04/26 07:41:15;;;;;;;5.22;3.40;;;;;;;8.70;64.14;100520.20;1794934;80;20884;-41
2021/04/26 07:43:43;;;;;;;2.70;2.50;;;;;;;8.71;63.45;100507.71;1794990;80;22223;-41
2021/04/26 07:46:11;;;;;;;4.12;3.33;;;;;;;8.69;62.87;100504.30;1794867;80;21158;-41
2021/04/26 07:48:39;;;;;;;7.60;2.80;;;;;;;8.70;63.62;100493.97;1794862;80;20999;-41
2021/04/26 07:51:07;;;;;;;4.33;2.83;;;;;;;8.77;63.79;100483.16;1794896;80;20904;-41
2021/04/26 07:53:35;;;;;;;6.40;2.70;;;;;;;8.80;63.25;100496.02;1794842;80;20991;-41
2021/04/26 07:56:04;;;;;;;9.08;3.10;;;;;;;8.80;63.08;100497.31;1794971;80;21482;-41
2021/04/26 07:58:31;;;;;;;7.00;2.83;;;;;;;8.81;62.84;100492.98;1794926;80;21216;-40
2021/04/26 08:00:59;;;;;;;8.30;2.95;;;;;;;8.85;63.17;100491.66;1794831;80;21059;-41
2021/04/26 08:03:27;;;;;;;10.10;3.80;;;;;;;8.91;63.01;100495.91;1794857;80;21002;-41
2021/04/26 08:05:55;;;;;;;12.82;3.52;;;;;;;8.99;63.60;100494.09;1794990;80;20915;-41
2021/04/26 08:08:23;;;;;;;30.27;3.52;;;;;;;9.06;63.53;100491.01;1794882;80;21192;-41
2021/04/26 08:10:51;;;;;;;27.75;4.15;;;;;;;9.10;63.92;100484.93;1794844;80;20947;-41
2021/04/26 08:13:19;;;;;;;19.82;6.17;;;;;;;9.13;64.36;100478.89;1794775;80;21054;-40
2021/04/26 08:15:46;;;;;;;67.35;5.72;;;;;;;9.16;64.54;100470.64;1794817;80;20986;-41
2021/04/26 08:18:14;;;;;;;36.28;4.22;;;;;;;9.16;64.29;100484.02;1794941;80;20998;-41
2021/04/26 08:20:42;;;;;;;59.55;4.42;;;;;;;9.16;63.26;100470.64;1794913;80;21267;-41
2021/04/26 08:23:10;;;;;;;29.72;3.72;;;;;;;9.23;63.96;100476.59;1794843;80;21073;-41
2021/04/26 08:25:38;;;;;;;38.13;3.90;;;;;;;9.29;63.88;100469.22;1794785;80;21053;-41
2021/04/26 08:28:06;;;;;;;41.48;4.53;;;;;;;9.34;63.83;100471.30;1794911;80;21061;-41
2021/04/26 08:30:34;;;;;;;42.25;4.92;;;;;;;9.36;63.17;100466.12;1794886;80;21019;-41
2021/04/26 08:33:02;;;;;;;29.77;3.60;;;;;;;9.37;63.09;100454.91;1794835;80;21202;-41
2021/04/26 08:35:29;;;;;;;9.70;3.30;;;;;;;9.37;63.29;100462.20;1794710;80;21006;-41
2021/04/26 08:37:57;;;;;;;5.85;3.30;;;;;;;9.34;63.20;100463.09;1794939;80;20998;-41
2021/04/26 08:40:25;;;;;;;5.50;3.58;;;;;;;9.32;63.12;100454.97;1794879;80;21018;-41
2021/04/26 08:43:04;;;;;;;6.12;3.22;;;;;;;9.29;62.78;100453.27;1794794;80;21077;-41
2021/04/26 08:45:32;;;;;;;11.28;3.60;;;;;;;9.24;62.91;100459.39;1794827;80;21292;-40
2021/04/26 08:48:03;;;;;;;9.93;3.45;;;;;;;9.11;63.50;100454.81;1794763;80;21026;-41
2021/04/26 08:50:31;;;;;;;5.83;3.55;;;;;;;8.97;65.16;100457.11;1794833;80;21014;-42
2021/04/26 08:52:59;;;;;;;9.13;3.40;;;;;;;8.75;66.91;100460.37;1794746;80;21058;-42
2021/04/26 08:55:27;;;;;;;5.30;3.10;;;;;;;8.52;67.68;100458.89;1794840;80;20919;-43
2021/04/26 08:57:54;;;;;;;6.10;3.00;;;;;;;8.33;68.68;100466.76;1794846;80;21205;-43
2021/04/26 09:00:22;;;;;;;5.75;3.72;;;;;;;8.10;69.94;100455.78;1794780;80;21062;-43
2021/04/26 09:02:58;;;;;;;7.92;3.95;;;;;;;7.91;71.00;100472.67;1794832;80;21010;-43
2021/04/26 09:05:33;;;;;;;8.37;3.63;;;;;;;7.79;71.75;100476.64;1795112;80;20911;-43
2021/04/26 09:08:03;;;;;;;9.33;4.35;;;;;;;7.66;72.46;100477.98;1795042;80;20983;-44
2021/04/26 09:10:46;;;;;;;12.15;4.35;;;;;;;7.52;74.50;100495.26;1794877;80;22337;-43
2021/04/26 09:13:44;;;;;;;6.55;3.77;;;;;;;7.36;76.30;100494.03;1794766;80;21746;-44
2021/04/26 09:16:24;;;;;;;5.78;3.47;;;;;;;7.23;77.22;100503.53;1794826;80;20951;-43
2021/04/26 09:19:00;;;;;;;4.53;3.87;;;;;;;7.05;79.18;100504.01;1794838;80;21078;-43
2021/04/26 09:21:30;;;;;;;6.33;4.12;;;;;;;6.87;80.92;100497.20;1794522;80;21598;-43
2021/04/26 09:24:25;;;;;;;8.13;3.75;;;;;;;6.71;81.07;100509.69;1790241;80;21398;-43
2021/04/26 09:27:03;;;;;;;5.90;3.70;;;;;;;6.54;81.96;100501.55;1794722;80;21085;-43
2021/04/26 09:29:32;;;;;;;7.65;4.12;;;;;;;6.41;82.91;100499.42;1794851;80;21053;-42
2021/04/26 09:32:18;;;;;;;6.05;3.80;;;;;;;6.38;83.75;100513.98;1794837;80;21025;-43
2021/04/26 09:34:52;;;;;;;5.97;4.15;;;;;;;6.29;83.65;100505.83;1792879;79;21082;-44
2021/04/26 09:37:24;;;;;;;5.20;3.60;;;;;;;6.25;83.63;100514.41;1790641;80;21199;-43
2021/04/26 09:40:14;;;;;;;4.58;3.50;;;;;;;6.24;83.41;100507.55;1790689;80;21081;-43
2021/04/26 09:42:52;;;;;;;5.35;3.60;;;;;;;6.23;83.39;100510.57;1786686;80;21603;-43
2021/04/26 09:45:31;;;;;;;3.87;3.15;;;;;;;6.20;83.78;100506.72;1790592;80;20982;-43
2021/04/26 09:48:21;;;;;;;4.17;3.45;;;;;;;6.20;83.90;100501.58;1790689;80;21575;-43
2021/04/26 09:51:19;;;;;;;3.72;2.98;;;;;;;6.18;83.77;100491.28;1764333;80;22121;-43
2021/04/26 09:53:54;;;;;;;;;;;;;;;6.23;83.43;100486.15;1793277;80;20967;-43
2021/04/26 09:56:36;;;;;;;2.77;2.57;;;;;;;6.18;82.92;100487.84;1791090;80;20131;-43
2021/04/26 09:59:04;;;;;;;2.60;2.40;;;;;;;6.19;83.03;100494.72;1790588;80;20951;-43
2021/04/26 10:01:35;;;;;;;4.80;2.50;;;;;;;6.16;83.19;100498.13;1790769;80;20884;-42
2021/04/26 10:04:05;;;;;;;2.58;2.37;;;;;;;6.12;83.14;100501.56;1790857;80;21464;-43
2021/04/26 10:06:34;;;;;;;3.47;2.40;;;;;;;6.09;83.17;100502.85;1790822;80;21074;-43
2021/04/26 10:09:06;;;;;;;2.22;2.02;;;;;;;6.10;83.71;100508.83;1790765;80;21002;-42
2021/04/26 10:11:36;;;;;;;3.67;2.25;;;;;;;6.10;83.78;100498.55;1790769;80;20896;-43
2021/04/26 10:14:14;;;;;;;2.90;2.58;;;;;;;6.12;84.15;100506.70;1790736;80;20939;-43
2021/04/26 10:16:59;;;;;;;28.60;4.85;;;;;;;6.13;84.25;100500.70;1790942;80;22275;-43
2021/04/26 10:19:45;;;;;;;19.67;4.55;;;;;;;6.10;84.64;100502.41;1790960;80;21539;-43
2021/04/26 10:22:15;;;;;;;15.65;3.42;;;;;;;5.98;85.81;100522.08;1790776;80;20955;-43
2021/04/26 10:24:55;;;;;;;11.12;2.50;;;;;;;5.80;85.46;100527.17;1790741;80;21038;-43
2021/04/26 10:27:38;;;;;;;4.50;3.35;;;;;;;5.63;85.27;100524.56;1790802;80;21026;-43
2021/04/26 10:30:10;;;;;;;3.55;2.83;;;;;;;5.42;85.87;100523.19;1790808;80;21208;-41
2021/04/26 10:32:59;;;;;;;8.45;2.72;;;;;;;5.29;86.39;100525.28;1790769;80;20955;-42
2021/04/26 10:35:46;;;;;;;10.85;3.27;;;;;;;5.15;86.74;100524.78;1790709;79;20986;-42
2021/04/26 10:38:46;;;;;;;8.85;2.95;;;;;;;5.15;86.74;100524.78;1790742;80;21085;-41
2021/04/26 10:41:48;;;;;;;2.52;2.37;;;;;;;4.58;85.07;100547.09;1790773;80;20888;-42
2021/04/26 10:44:38;;;;;;;3.02;2.83;;;;;;;4.58;85.07;100547.09;1790705;80;21158;-42
2021/04/26 10:47:18;;;;;;;2.75;2.55;;;;;;;4.20;86.59;100557.88;1790732;80;21034;-42
2021/04/26 10:49:49;;;;;;;23.45;4.90;;;;;;;3.98;87.64;100567.91;1772998;80;21003;-42
2021/04/26 10:52:38;;;;;;;7.30;2.20;;;;;;;3.80;88.36;100556.19;1790867;80;21456;-42
2021/04/26 10:57:59;;;;;;;7.95;1.82;;;;;;;3.59;88.24;100564.92;1847574;76;22120;-42
2021/04/26 11:00:42;;;;;;;8.93;2.05;;;;;;;3.53;88.44;100566.54;1817792;78;21038;-41
2021/04/26 11:03:19;;;;;;;2.67;1.45;;;;;;;3.54;88.23;100561.86;1787149;79;21248;-42
2021/04/26 11:05:49;;;;;;;1.52;1.50;;;;;;;3.49;87.66;100554.11;1785510;80;21045;-42
2021/04/26 11:08:41;;;;;;;4.92;1.67;;;;;;;3.49;87.25;100559.67;1785566;79;20915;-41
2021/04/26 11:11:16;;;;;;;6.47;1.55;;;;;;;3.53;87.02;100558.86;1785505;80;20923;-42
2021/04/26 11:13:49;;;;;;;9.30;1.55;;;;;;;3.55;86.43;100555.49;1785186;79;21017;-42
2021/04/26 11:16:21;;;;;;;21.02;3.33;;;;;;;3.59;85.87;100560.20;1785591;80;21148;-42
2021/04/26 11:19:09;;;;;;;2.25;1.75;;;;;;;3.60;84.82;100569.61;1785493;80;21586;-41
2021/04/26 11:21:49;;;;;;;10.97;2.10;;;;;;;3.65;83.92;100569.67;1785796;80;21005;-42
2021/04/26 11:24:30;;;;;;;3.33;1.20;;;;;;;3.78;85.24;100561.71;1784805;80;21029;-42
2021/04/26 11:27:14;;;;;;;7.95;1.77;;;;;;;3.92;84.46;100572.10;1785570;80;20946;-42
2021/04/26 11:29:49;;;;;;;4.42;1.00;;;;;;;3.93;81.41;100540.12;1785589;80;22262;-42
2021/04/26 11:32:19;;;;;;;6.08;1.40;;;;;;;3.88;82.06;100563.52;1785446;79;20958;-42
2021/04/26 11:34:54;;;;;;;5.53;1.27;;;;;;;3.84;82.31;100578.01;1785501;80;21018;-42
2021/04/26 11:37:29;;;;;;;1.87;1.10;;;;;;;3.79;81.41;100574.95;1785457;80;21097;-42
2021/04/26 11:39:58;;;;;;;8.68;1.42;;;;;;;3.74;82.30;100598.81;1785601;79;21544;-41
2021/04/26 11:42:29;;;;;;;2.58;1.15;;;;;;;3.78;83.42;100596.28;1785509;80;21363;-41
2021/04/26 11:44:57;;;;;;;1.47;1.40;;;;;;;3.79;83.11;100597.59;1785514;80;20989;-41
2021/04/26 11:47:25;;;;;;;4.00;1.85;;;;;;;3.72;81.96;100604.34;1785481;80;20986;-41
2021/04/26 11:50:00;;;;;;;1.50;1.40;;;;;;;3.69;82.17;100611.98;1785498;79;20950;-41
2021/04/26 11:52:32;;;;;;;1.75;1.65;;;;;;;3.67;82.91;100612.39;1785482;80;20942;-41
2021/04/26 11:55:08;;;;;;;0.70;0.70;;;;;;;3.72;83.33;100626.10;1785530;80;21192;-41
2021/04/26 11:57:46;;;;;;;0.80;0.80;;;;;;;3.59;79.32;100617.81;1793834;78;20969;-41